Pisces Leader — HPCT — position and weather

sailwx.info

Track history (hours):
 
Tides and Currents Weather Stations Pressure Air Temp Water Temp Dewpoint Dewpoint Depression Visibility Wind Speed Wind Dir Waves Ship Positions

Pisces Leader

Last reported at 2018-Jul-10 21:58 UTC. Time now 2018-Jul-18 14:34 UTC.
Position N 01°55' E 104°49'.

Length 199 m; draft 7.6 m.

Type: Cargo ship. MMSI: 353987000.

Date/timePositionNaut miles runAvg speedWind from/ knotsBaromVisibWave heightAir tempDewpointWater temp
2018-Jul-10 21:58N 01°55' E 104°49'1019.2
2018-Jul-10 21:27N 01°45' E 104°46'1019.3
2018-Jul-10 20:56N 01°37' E 104°40'819.7
2018-Jul-10 20:30N 01°30' E 104°35'1120.7
2018-Jul-10 19:59N 01°24' E 104°26'919.5
2018-Jul-10 19:30N 01°17' E 104°20'918.3
2018-Jul-10 19:00N 01°15' E 104°10'917.6
2018-Jul-10 18:30N 01°15' E 104°02'815.0
2018-Jul-10 18:00N 01°13' E 103°54'714.3
2018-Jul-10 17:30N 01°10' E 103°48'816.4
2018-Jul-10 17:01N 01°04' E 103°42'714.0
2018-Jul-10 16:30N 01°06' E 103°35'917.4
2018-Jul-10 16:00N 01°10' E 103°27'918.9
2018-Jul-10 15:30N 01°16' E 103°20'918.1
2018-Jul-10 15:00N 01°22' E 103°13'  
Track history (hours):
 
Tides and Currents Weather Stations Pressure Air Temp Water Temp Dewpoint Dewpoint Depression Visibility Wind Speed Wind Dir Waves Ship Positions

Pisces Leader

Last reported at 2018-Jul-10 21:58 UTC. Time now 2018-Jul-18 14:34 UTC.
Position N 01°55' E 104°49'.

Length 199 m; draft 7.6 m.

Type: Cargo ship. MMSI: 353987000.

Date/timePositionNaut miles runAvg speedWind from/ knotsBaromVisibWave heightAir tempDewpointWater temp
2018-Jul-10 21:58N 01°55' E 104°49'1019.2
2018-Jul-10 21:27N 01°45' E 104°46'1019.3
2018-Jul-10 20:56N 01°37' E 104°40'819.7
2018-Jul-10 20:30N 01°30' E 104°35'1120.7
2018-Jul-10 19:59N 01°24' E 104°26'919.5
2018-Jul-10 19:30N 01°17' E 104°20'918.3
2018-Jul-10 19:00N 01°15' E 104°10'917.6
2018-Jul-10 18:30N 01°15' E 104°02'815.0
2018-Jul-10 18:00N 01°13' E 103°54'714.3
2018-Jul-10 17:30N 01°10' E 103°48'816.4
2018-Jul-10 17:01N 01°04' E 103°42'714.0
2018-Jul-10 16:30N 01°06' E 103°35'917.4
2018-Jul-10 16:00N 01°10' E 103°27'918.9
2018-Jul-10 15:30N 01°16' E 103°20'918.1
2018-Jul-10 15:00N 01°22' E 103°13'  

Dump ship's entire track history